sensor_id;sensor_type;location;lat;lon;timestamp;P1;durP1;ratioP1;P2;durP2;ratioP2
41139;SDS011;26881;48.784;9.192;2024-02-14T00:01:06;10.83;;;4.87;;
41139;SDS011;26881;48.784;9.192;2024-02-14T00:06:34;7.80;;;4.87;;
41139;SDS011;26881;48.784;9.192;2024-02-14T00:11:57;9.93;;;5.17;;
41139;SDS011;26881;48.784;9.192;2024-02-14T00:17:19;14.10;;;5.47;;
41139;SDS011;26881;48.784;9.192;2024-02-14T00:22:41;8.40;;;4.43;;
41139;SDS011;26881;48.784;9.192;2024-02-14T00:28:03;8.07;;;4.70;;
41139;SDS011;26881;48.784;9.192;2024-02-14T00:33:26;8.93;;;3.73;;
41139;SDS011;26881;48.784;9.192;2024-02-14T00:38:49;6.97;;;4.10;;
41139;SDS011;26881;48.784;9.192;2024-02-14T00:44:11;6.37;;;4.47;;
41139;SDS011;26881;48.784;9.192;2024-02-14T00:49:36;8.13;;;4.50;;
41139;SDS011;26881;48.784;9.192;2024-02-14T00:54:59;8.57;;;4.63;;
41139;SDS011;26881;48.784;9.192;2024-02-14T01:00:21;11.77;;;5.33;;
41139;SDS011;26881;48.784;9.192;2024-02-14T01:05:43;10.10;;;5.10;;
41139;SDS011;26881;48.784;9.192;2024-02-14T01:11:05;12.57;;;6.37;;
41139;SDS011;26881;48.784;9.192;2024-02-14T01:16:27;8.77;;;4.43;;
41139;SDS011;26881;48.784;9.192;2024-02-14T01:21:49;11.30;;;5.40;;
41139;SDS011;26881;48.784;9.192;2024-02-14T01:27:11;10.97;;;5.17;;
41139;SDS011;26881;48.784;9.192;2024-02-14T01:32:33;8.83;;;5.40;;
41139;SDS011;26881;48.784;9.192;2024-02-14T01:37:55;11.67;;;5.27;;
41139;SDS011;26881;48.784;9.192;2024-02-14T01:43:17;13.50;;;5.87;;
41139;SDS011;26881;48.784;9.192;2024-02-14T01:48:41;12.30;;;5.60;;
41139;SDS011;26881;48.784;9.192;2024-02-14T01:54:05;9.37;;;5.33;;
41139;SDS011;26881;48.784;9.192;2024-02-14T01:59:27;9.57;;;5.60;;
41139;SDS011;26881;48.784;9.192;2024-02-14T02:04:50;14.23;;;5.83;;
41139;SDS011;26881;48.784;9.192;2024-02-14T02:10:13;10.83;;;6.20;;
41139;SDS011;26881;48.784;9.192;2024-02-14T02:15:35;10.50;;;6.10;;
41139;SDS011;26881;48.784;9.192;2024-02-14T02:20:58;10.37;;;5.27;;
41139;SDS011;26881;48.784;9.192;2024-02-14T02:26:20;12.00;;;5.90;;
41139;SDS011;26881;48.784;9.192;2024-02-14T02:31:42;10.50;;;6.10;;
41139;SDS011;26881;48.784;9.192;2024-02-14T02:37:05;12.67;;;6.17;;
41139;SDS011;26881;48.784;9.192;2024-02-14T02:42:29;8.53;;;5.90;;
41139;SDS011;26881;48.784;9.192;2024-02-14T02:47:51;13.00;;;6.53;;
41139;SDS011;26881;48.784;9.192;2024-02-14T02:53:13;9.80;;;5.90;;
41139;SDS011;26881;48.784;9.192;2024-02-14T02:58:37;10.07;;;5.97;;
41139;SDS011;26881;48.784;9.192;2024-02-14T03:03:59;10.20;;;5.80;;
41139;SDS011;26881;48.784;9.192;2024-02-14T03:09:21;11.73;;;6.13;;
41139;SDS011;26881;48.784;9.192;2024-02-14T03:14:44;13.77;;;6.10;;
41139;SDS011;26881;48.784;9.192;2024-02-14T03:20:06;16.43;;;5.77;;
41139;SDS011;26881;48.784;9.192;2024-02-14T03:25:39;9.07;;;5.57;;
41139;SDS011;26881;48.784;9.192;2024-02-14T03:31:01;12.13;;;5.90;;
41139;SDS011;26881;48.784;9.192;2024-02-14T03:36:23;10.43;;;6.07;;
41139;SDS011;26881;48.784;9.192;2024-02-14T03:41:48;9.63;;;5.83;;
41139;SDS011;26881;48.784;9.192;2024-02-14T03:47:10;10.20;;;5.90;;
41139;SDS011;26881;48.784;9.192;2024-02-14T03:52:32;10.93;;;6.23;;
41139;SDS011;26881;48.784;9.192;2024-02-14T03:57:54;11.63;;;5.87;;
41139;SDS011;26881;48.784;9.192;2024-02-14T04:03:16;12.23;;;5.90;;
41139;SDS011;26881;48.784;9.192;2024-02-14T04:08:39;9.87;;;5.10;;
41139;SDS011;26881;48.784;9.192;2024-02-14T04:14:01;14.27;;;6.17;;
41139;SDS011;26881;48.784;9.192;2024-02-14T04:19:23;11.67;;;6.07;;
41139;SDS011;26881;48.784;9.192;2024-02-14T04:24:45;8.97;;;6.10;;
41139;SDS011;26881;48.784;9.192;2024-02-14T04:30:07;8.63;;;4.60;;
41139;SDS011;26881;48.784;9.192;2024-02-14T04:35:29;9.33;;;5.03;;
41139;SDS011;26881;48.784;9.192;2024-02-14T04:40:51;11.33;;;5.37;;
41139;SDS011;26881;48.784;9.192;2024-02-14T04:46:13;10.10;;;6.10;;
41139;SDS011;26881;48.784;9.192;2024-02-14T04:51:35;13.50;;;7.13;;
41139;SDS011;26881;48.784;9.192;2024-02-14T04:56:57;14.93;;;8.57;;
41139;SDS011;26881;48.784;9.192;2024-02-14T05:02:23;17.83;;;7.87;;
41139;SDS011;26881;48.784;9.192;2024-02-14T05:07:46;18.17;;;8.03;;
41139;SDS011;26881;48.784;9.192;2024-02-14T05:13:08;13.97;;;7.10;;
41139;SDS011;26881;48.784;9.192;2024-02-14T05:18:30;24.33;;;8.30;;
41139;SDS011;26881;48.784;9.192;2024-02-14T05:23:52;8.60;;;3.53;;
41139;SDS011;26881;48.784;9.192;2024-02-14T05:29:14;9.43;;;2.70;;
41139;SDS011;26881;48.784;9.192;2024-02-14T05:34:36;5.40;;;2.27;;
41139;SDS011;26881;48.784;9.192;2024-02-14T05:39:58;5.50;;;3.53;;
41139;SDS011;26881;48.784;9.192;2024-02-14T05:45:20;7.10;;;2.80;;
41139;SDS011;26881;48.784;9.192;2024-02-14T05:50:42;6.00;;;3.27;;
41139;SDS011;26881;48.784;9.192;2024-02-14T05:56:05;5.43;;;3.30;;
41139;SDS011;26881;48.784;9.192;2024-02-14T06:01:27;7.47;;;3.83;;
41139;SDS011;26881;48.784;9.192;2024-02-14T06:06:50;10.00;;;3.50;;
41139;SDS011;26881;48.784;9.192;2024-02-14T06:12:12;8.43;;;3.47;;
41139;SDS011;26881;48.784;9.192;2024-02-14T06:17:34;7.07;;;3.83;;
41139;SDS011;26881;48.784;9.192;2024-02-14T06:22:56;8.10;;;4.47;;
41139;SDS011;26881;48.784;9.192;2024-02-14T06:28:26;6.13;;;4.60;;
41139;SDS011;26881;48.784;9.192;2024-02-14T06:33:49;10.30;;;4.63;;
41139;SDS011;26881;48.784;9.192;2024-02-14T06:39:11;7.87;;;4.90;;
41139;SDS011;26881;48.784;9.192;2024-02-14T06:44:33;7.27;;;4.80;;
41139;SDS011;26881;48.784;9.192;2024-02-14T06:49:57;13.40;;;10.60;;
41139;SDS011;26881;48.784;9.192;2024-02-14T06:55:19;14.77;;;7.20;;
41139;SDS011;26881;48.784;9.192;2024-02-14T07:00:41;10.53;;;5.73;;
41139;SDS011;26881;48.784;9.192;2024-02-14T07:06:03;7.90;;;4.27;;
41139;SDS011;26881;48.784;9.192;2024-02-14T07:11:25;5.33;;;3.57;;
41139;SDS011;26881;48.784;9.192;2024-02-14T07:16:47;9.27;;;4.20;;
41139;SDS011;26881;48.784;9.192;2024-02-14T07:22:08;7.40;;;4.30;;
41139;SDS011;26881;48.784;9.192;2024-02-14T07:27:31;5.60;;;4.07;;
41139;SDS011;26881;48.784;9.192;2024-02-14T07:32:53;8.23;;;3.53;;
41139;SDS011;26881;48.784;9.192;2024-02-14T07:38:15;7.30;;;3.13;;
41139;SDS011;26881;48.784;9.192;2024-02-14T07:43:38;6.40;;;3.40;;
41139;SDS011;26881;48.784;9.192;2024-02-14T07:49:00;10.70;;;4.60;;
41139;SDS011;26881;48.784;9.192;2024-02-14T07:54:22;9.27;;;4.27;;
41139;SDS011;26881;48.784;9.192;2024-02-14T07:59:44;10.17;;;4.87;;
41139;SDS011;26881;48.784;9.192;2024-02-14T08:05:06;8.87;;;4.50;;
41139;SDS011;26881;48.784;9.192;2024-02-14T08:10:30;6.72;;;3.72;;
41139;SDS011;26881;48.784;9.192;2024-02-14T08:15:52;12.30;;;4.17;;
41139;SDS011;26881;48.784;9.192;2024-02-14T08:21:14;8.80;;;3.50;;
41139;SDS011;26881;48.784;9.192;2024-02-14T08:26:36;11.73;;;3.90;;
41139;SDS011;26881;48.784;9.192;2024-02-14T08:38:40;8.60;;;4.03;;
41139;SDS011;26881;48.784;9.192;2024-02-14T08:44:02;8.35;;;3.92;;
41139;SDS011;26881;48.784;9.192;2024-02-14T08:49:26;6.85;;;3.83;;
41139;SDS011;26881;48.784;9.192;2024-02-14T08:54:51;8.27;;;4.22;;
41139;SDS011;26881;48.784;9.192;2024-02-14T09:00:14;11.50;;;4.97;;
41139;SDS011;26881;48.784;9.192;2024-02-14T09:05:36;9.18;;;5.13;;
41139;SDS011;26881;48.784;9.192;2024-02-14T09:11:00;11.55;;;4.97;;
41139;SDS011;26881;48.784;9.192;2024-02-14T09:16:22;10.60;;;5.35;;
41139;SDS011;26881;48.784;9.192;2024-02-14T09:21:44;13.85;;;4.47;;
41139;SDS011;26881;48.784;9.192;2024-02-14T09:27:06;8.65;;;4.20;;
41139;SDS011;26881;48.784;9.192;2024-02-14T09:32:29;6.43;;;4.00;;
41139;SDS011;26881;48.784;9.192;2024-02-14T09:37:54;7.30;;;4.20;;
41139;SDS011;26881;48.784;9.192;2024-02-14T09:43:28;5.30;;;3.05;;
41139;SDS011;26881;48.784;9.192;2024-02-14T09:48:56;3.15;;;1.50;;
41139;SDS011;26881;48.784;9.192;2024-02-14T09:54:20;3.75;;;1.40;;
41139;SDS011;26881;48.784;9.192;2024-02-14T09:59:43;5.45;;;1.90;;
41139;SDS011;26881;48.784;9.192;2024-02-14T10:05:07;3.15;;;1.50;;
41139;SDS011;26881;48.784;9.192;2024-02-14T10:10:31;6.90;;;1.70;;
41139;SDS011;26881;48.784;9.192;2024-02-14T10:15:53;14.82;;;1.48;;
41139;SDS011;26881;48.784;9.192;2024-02-14T10:21:16;2.72;;;1.65;;
41139;SDS011;26881;48.784;9.192;2024-02-14T10:26:40;1.63;;;1.08;;
41139;SDS011;26881;48.784;9.192;2024-02-14T10:32:04;2.25;;;1.33;;
41139;SDS011;26881;48.784;9.192;2024-02-14T10:37:26;4.60;;;1.10;;
41139;SDS011;26881;48.784;9.192;2024-02-14T10:42:51;2.55;;;1.05;;
41139;SDS011;26881;48.784;9.192;2024-02-14T10:48:15;1.17;;;1.00;;
41139;SDS011;26881;48.784;9.192;2024-02-14T10:53:39;2.22;;;1.30;;
41139;SDS011;26881;48.784;9.192;2024-02-14T10:59:07;5.32;;;3.00;;
41139;SDS011;26881;48.784;9.192;2024-02-14T11:04:31;2.55;;;1.30;;
41139;SDS011;26881;48.784;9.192;2024-02-14T11:10:00;2.42;;;1.38;;
41139;SDS011;26881;48.784;9.192;2024-02-14T11:15:27;3.30;;;1.00;;
41139;SDS011;26881;48.784;9.192;2024-02-14T11:20:52;1.90;;;1.00;;
41139;SDS011;26881;48.784;9.192;2024-02-14T11:26:15;2.85;;;1.40;;
41139;SDS011;26881;48.784;9.192;2024-02-14T11:31:37;3.47;;;1.38;;
41139;SDS011;26881;48.784;9.192;2024-02-14T11:36:59;2.75;;;0.98;;
41139;SDS011;26881;48.784;9.192;2024-02-14T11:42:21;1.23;;;0.95;;
41139;SDS011;26881;48.784;9.192;2024-02-14T11:47:46;1.67;;;0.93;;
41139;SDS011;26881;48.784;9.192;2024-02-14T11:53:08;1.23;;;0.90;;
41139;SDS011;26881;48.784;9.192;2024-02-14T11:58:32;1.50;;;0.80;;
41139;SDS011;26881;48.784;9.192;2024-02-14T12:03:56;3.40;;;0.80;;
41139;SDS011;26881;48.784;9.192;2024-02-14T12:09:22;1.42;;;1.02;;
41139;SDS011;26881;48.784;9.192;2024-02-14T12:14:44;1.73;;;0.90;;
41139;SDS011;26881;48.784;9.192;2024-02-14T12:20:10;0.80;;;0.80;;
41139;SDS011;26881;48.784;9.192;2024-02-14T12:25:35;1.85;;;1.10;;
41139;SDS011;26881;48.784;9.192;2024-02-14T12:30:57;1.00;;;0.90;;
41139;SDS011;26881;48.784;9.192;2024-02-14T12:36:20;0.80;;;0.80;;
41139;SDS011;26881;48.784;9.192;2024-02-14T12:41:42;1.42;;;0.70;;
41139;SDS011;26881;48.784;9.192;2024-02-14T12:47:04;1.58;;;0.50;;
41139;SDS011;26881;48.784;9.192;2024-02-14T12:52:26;1.40;;;0.77;;
41139;SDS011;26881;48.784;9.192;2024-02-14T12:57:47;2.10;;;1.50;;
41139;SDS011;26881;48.784;9.192;2024-02-14T13:03:10;1.10;;;0.90;;
41139;SDS011;26881;48.784;9.192;2024-02-14T13:08:37;1.23;;;0.70;;
41139;SDS011;26881;48.784;9.192;2024-02-14T13:14:00;1.00;;;0.90;;
41139;SDS011;26881;48.784;9.192;2024-02-14T13:19:22;1.38;;;0.60;;
41139;SDS011;26881;48.784;9.192;2024-02-14T13:24:45;1.00;;;0.80;;
41139;SDS011;26881;48.784;9.192;2024-02-14T13:30:07;1.55;;;0.60;;
41139;SDS011;26881;48.784;9.192;2024-02-14T13:35:29;2.42;;;0.82;;
41139;SDS011;26881;48.784;9.192;2024-02-14T13:46:45;2.78;;;0.68;;
41139;SDS011;26881;48.784;9.192;2024-02-14T13:52:12;0.60;;;0.60;;
41139;SDS011;26881;48.784;9.192;2024-02-14T13:57:35;1.75;;;0.65;;
41139;SDS011;26881;48.784;9.192;2024-02-14T14:02:59;2.00;;;0.57;;
41139;SDS011;26881;48.784;9.192;2024-02-14T14:08:21;1.00;;;0.90;;
41139;SDS011;26881;48.784;9.192;2024-02-14T14:13:44;4.18;;;0.70;;
41139;SDS011;26881;48.784;9.192;2024-02-14T14:19:06;1.05;;;0.98;;
41139;SDS011;26881;48.784;9.192;2024-02-14T14:24:28;0.50;;;0.50;;
41139;SDS011;26881;48.784;9.192;2024-02-14T14:29:52;0.43;;;0.43;;
41139;SDS011;26881;48.784;9.192;2024-02-14T14:35:15;0.50;;;0.50;;
41139;SDS011;26881;48.784;9.192;2024-02-14T14:40:37;0.50;;;0.50;;
41139;SDS011;26881;48.784;9.192;2024-02-14T14:45:59;0.90;;;0.68;;
41139;SDS011;26881;48.784;9.192;2024-02-14T14:51:21;1.85;;;1.40;;
41139;SDS011;26881;48.784;9.192;2024-02-14T14:56:43;0.93;;;0.70;;
41139;SDS011;26881;48.784;9.192;2024-02-14T15:02:06;0.88;;;0.80;;
41139;SDS011;26881;48.784;9.192;2024-02-14T15:07:28;1.92;;;0.60;;
41139;SDS011;26881;48.784;9.192;2024-02-14T15:12:50;1.65;;;0.80;;
41139;SDS011;26881;48.784;9.192;2024-02-14T15:18:12;2.35;;;0.60;;
41139;SDS011;26881;48.784;9.192;2024-02-14T15:23:34;0.60;;;0.50;;
41139;SDS011;26881;48.784;9.192;2024-02-14T15:28:56;1.08;;;0.70;;
41139;SDS011;26881;48.784;9.192;2024-02-14T15:34:37;1.20;;;0.70;;
41139;SDS011;26881;48.784;9.192;2024-02-14T15:39:59;0.77;;;0.77;;
41139;SDS011;26881;48.784;9.192;2024-02-14T15:45:21;2.75;;;0.77;;
41139;SDS011;26881;48.784;9.192;2024-02-14T15:50:43;1.95;;;0.80;;
41139;SDS011;26881;48.784;9.192;2024-02-14T15:56:07;0.73;;;0.65;;
41139;SDS011;26881;48.784;9.192;2024-02-14T16:01:31;0.95;;;0.70;;
41139;SDS011;26881;48.784;9.192;2024-02-14T16:06:53;0.98;;;0.63;;
41139;SDS011;26881;48.784;9.192;2024-02-14T16:12:15;2.70;;;0.90;;
41139;SDS011;26881;48.784;9.192;2024-02-14T16:17:38;0.88;;;0.65;;
41139;SDS011;26881;48.784;9.192;2024-02-14T16:23:03;5.82;;;1.20;;
41139;SDS011;26881;48.784;9.192;2024-02-14T16:28:27;1.27;;;1.00;;
41139;SDS011;26881;48.784;9.192;2024-02-14T16:33:49;2.42;;;1.30;;
41139;SDS011;26881;48.784;9.192;2024-02-14T16:39:12;1.60;;;1.50;;
41139;SDS011;26881;48.784;9.192;2024-02-14T16:44:51;2.35;;;2.10;;
41139;SDS011;26881;48.784;9.192;2024-02-14T16:50:14;1.80;;;1.70;;
41139;SDS011;26881;48.784;9.192;2024-02-14T16:55:35;2.10;;;1.80;;
41139;SDS011;26881;48.784;9.192;2024-02-14T17:00:58;2.33;;;1.23;;
41139;SDS011;26881;48.784;9.192;2024-02-14T17:06:20;1.83;;;1.20;;
41139;SDS011;26881;48.784;9.192;2024-02-14T17:11:42;2.00;;;1.10;;
41139;SDS011;26881;48.784;9.192;2024-02-14T17:17:04;1.65;;;1.15;;
41139;SDS011;26881;48.784;9.192;2024-02-14T17:22:27;4.05;;;1.13;;
41139;SDS011;26881;48.784;9.192;2024-02-14T17:27:52;2.28;;;1.40;;
41139;SDS011;26881;48.784;9.192;2024-02-14T17:33:14;2.03;;;1.25;;
41139;SDS011;26881;48.784;9.192;2024-02-14T17:38:36;1.52;;;1.40;;
41139;SDS011;26881;48.784;9.192;2024-02-14T17:43:59;3.20;;;1.50;;
41139;SDS011;26881;48.784;9.192;2024-02-14T17:49:24;2.35;;;1.63;;
41139;SDS011;26881;48.784;9.192;2024-02-14T17:54:46;2.40;;;1.52;;
41139;SDS011;26881;48.784;9.192;2024-02-14T18:00:09;3.38;;;1.27;;
41139;SDS011;26881;48.784;9.192;2024-02-14T18:05:33;2.05;;;1.50;;
41139;SDS011;26881;48.784;9.192;2024-02-14T18:10:58;3.03;;;2.03;;
41139;SDS011;26881;48.784;9.192;2024-02-14T18:16:20;1.73;;;1.20;;
41139;SDS011;26881;48.784;9.192;2024-02-14T18:21:42;1.85;;;1.30;;
41139;SDS011;26881;48.784;9.192;2024-02-14T18:27:04;1.52;;;1.20;;
41139;SDS011;26881;48.784;9.192;2024-02-14T18:32:26;1.27;;;1.20;;
41139;SDS011;26881;48.784;9.192;2024-02-14T18:37:48;1.95;;;1.40;;
41139;SDS011;26881;48.784;9.192;2024-02-14T18:43:11;2.63;;;1.20;;
41139;SDS011;26881;48.784;9.192;2024-02-14T18:48:33;1.70;;;1.48;;
41139;SDS011;26881;48.784;9.192;2024-02-14T18:53:55;1.75;;;1.23;;
41139;SDS011;26881;48.784;9.192;2024-02-14T18:59:18;2.10;;;1.40;;
41139;SDS011;26881;48.784;9.192;2024-02-14T19:04:39;2.95;;;1.77;;
41139;SDS011;26881;48.784;9.192;2024-02-14T19:10:01;1.42;;;1.33;;
41139;SDS011;26881;48.784;9.192;2024-02-14T19:15:23;5.97;;;1.92;;
41139;SDS011;26881;48.784;9.192;2024-02-14T19:20:45;1.50;;;1.40;;
41139;SDS011;26881;48.784;9.192;2024-02-14T19:26:10;1.77;;;1.40;;
41139;SDS011;26881;48.784;9.192;2024-02-14T19:31:32;1.50;;;1.40;;
41139;SDS011;26881;48.784;9.192;2024-02-14T19:36:55;3.28;;;1.58;;
41139;SDS011;26881;48.784;9.192;2024-02-14T19:42:17;1.65;;;1.42;;
41139;SDS011;26881;48.784;9.192;2024-02-14T19:47:39;3.60;;;1.80;;
41139;SDS011;26881;48.784;9.192;2024-02-14T19:53:01;1.77;;;1.50;;
41139;SDS011;26881;48.784;9.192;2024-02-14T19:58:24;2.33;;;1.50;;
41139;SDS011;26881;48.784;9.192;2024-02-14T20:03:46;2.97;;;1.55;;
41139;SDS011;26881;48.784;9.192;2024-02-14T20:09:08;2.65;;;1.30;;
41139;SDS011;26881;48.784;9.192;2024-02-14T20:14:32;2.95;;;2.55;;
41139;SDS011;26881;48.784;9.192;2024-02-14T20:19:53;2.35;;;1.60;;
41139;SDS011;26881;48.784;9.192;2024-02-14T20:25:15;3.55;;;1.52;;
41139;SDS011;26881;48.784;9.192;2024-02-14T20:30:38;5.88;;;3.65;;
41139;SDS011;26881;48.784;9.192;2024-02-14T20:36:00;2.10;;;1.80;;
41139;SDS011;26881;48.784;9.192;2024-02-14T20:41:22;4.00;;;1.90;;
41139;SDS011;26881;48.784;9.192;2024-02-14T20:46:44;1.80;;;1.45;;
41139;SDS011;26881;48.784;9.192;2024-02-14T20:52:13;3.50;;;1.63;;
41139;SDS011;26881;48.784;9.192;2024-02-14T20:57:35;2.60;;;1.70;;
41139;SDS011;26881;48.784;9.192;2024-02-14T21:02:57;2.05;;;1.60;;
41139;SDS011;26881;48.784;9.192;2024-02-14T21:08:19;2.67;;;1.55;;
41139;SDS011;26881;48.784;9.192;2024-02-14T21:13:42;3.85;;;1.60;;
41139;SDS011;26881;48.784;9.192;2024-02-14T21:19:04;2.40;;;1.80;;
41139;SDS011;26881;48.784;9.192;2024-02-14T21:24:26;2.95;;;2.20;;
41139;SDS011;26881;48.784;9.192;2024-02-14T21:29:48;4.93;;;1.73;;
41139;SDS011;26881;48.784;9.192;2024-02-14T21:35:10;2.30;;;1.60;;
41139;SDS011;26881;48.784;9.192;2024-02-14T21:40:34;3.03;;;1.75;;
41139;SDS011;26881;48.784;9.192;2024-02-14T21:45:56;2.03;;;1.77;;
41139;SDS011;26881;48.784;9.192;2024-02-14T21:51:19;4.07;;;2.00;;
41139;SDS011;26881;48.784;9.192;2024-02-14T21:56:42;3.17;;;1.63;;
41139;SDS011;26881;48.784;9.192;2024-02-14T22:02:04;5.35;;;2.20;;
41139;SDS011;26881;48.784;9.192;2024-02-14T22:07:27;2.22;;;1.67;;
41139;SDS011;26881;48.784;9.192;2024-02-14T22:12:49;2.20;;;1.60;;
41139;SDS011;26881;48.784;9.192;2024-02-14T22:18:11;3.17;;;1.70;;
41139;SDS011;26881;48.784;9.192;2024-02-14T22:23:33;2.97;;;1.73;;
41139;SDS011;26881;48.784;9.192;2024-02-14T22:28:55;3.65;;;1.40;;
41139;SDS011;26881;48.784;9.192;2024-02-14T22:34:18;2.17;;;1.60;;
41139;SDS011;26881;48.784;9.192;2024-02-14T22:39:40;3.83;;;1.52;;
41139;SDS011;26881;48.784;9.192;2024-02-14T22:45:02;1.35;;;1.20;;
41139;SDS011;26881;48.784;9.192;2024-02-14T22:50:24;3.40;;;1.50;;
41139;SDS011;26881;48.784;9.192;2024-02-14T22:55:46;1.98;;;1.20;;
41139;SDS011;26881;48.784;9.192;2024-02-14T23:01:07;1.95;;;1.08;;
41139;SDS011;26881;48.784;9.192;2024-02-14T23:06:29;5.05;;;1.42;;
41139;SDS011;26881;48.784;9.192;2024-02-14T23:11:52;3.75;;;1.40;;
41139;SDS011;26881;48.784;9.192;2024-02-14T23:17:14;2.15;;;1.10;;
41139;SDS011;26881;48.784;9.192;2024-02-14T23:22:36;5.55;;;1.40;;
41139;SDS011;26881;48.784;9.192;2024-02-14T23:27:58;4.55;;;1.88;;
41139;SDS011;26881;48.784;9.192;2024-02-14T23:33:21;3.40;;;2.08;;
41139;SDS011;26881;48.784;9.192;2024-02-14T23:38:43;8.50;;;3.10;;
41139;SDS011;26881;48.784;9.192;2024-02-14T23:44:08;9.93;;;2.70;;
41139;SDS011;26881;48.784;9.192;2024-02-14T23:49:30;4.68;;;1.92;;
41139;SDS011;26881;48.784;9.192;2024-02-14T23:54:52;7.78;;;2.38;;
